Gautier, Mississippi
Current Conditions -  °F | °C
As of 3:53 PM on Saturday 25 Oct 2014 (Local Time) from KPQL Reporting Station
Clear Clear  
Wind Chill: 80°   Ceiling: Unl
Heat Index: 80°   Visibility: 10mi
Dew Point: 54°   Wind: 8mph
Humidity: 40%   Direction: 360°N
Pressure: 30.04"   Gusts: NA
Location:  30.39°N, 88.65°W
Report Text: KPQL 252053Z 36007KT 10SM CLR 27/12 A3004 RMK AO2 SLP174 T02670122 56018
Loading
Personal Weather Stations






























Interactive Weather Map
Tropical Storm Tracking
New forecast layout! Learn more

10-Day Weather Forecast

Advertisements
Track Severe Weather on mobile